createdAt,value
2022-12-15T00:01:09.479Z,88
2022-12-15T00:02:15.949Z,88
2022-12-15T00:03:23.200Z,88
2022-12-15T00:04:30.144Z,89
2022-12-15T00:05:37.194Z,89
2022-12-15T00:06:44.336Z,89
2022-12-15T00:07:50.910Z,89
2022-12-15T00:08:57.974Z,89
2022-12-15T00:10:05.145Z,89
2022-12-15T00:11:12.215Z,89
2022-12-15T00:12:19.360Z,89
2022-12-15T00:13:26.743Z,89
2022-12-15T00:14:33.051Z,89
2022-12-15T00:15:40.286Z,89
2022-12-15T00:16:47.208Z,89
2022-12-15T00:17:54.331Z,89
2022-12-15T00:19:00.882Z,89
2022-12-15T00:20:07.990Z,89
2022-12-15T00:21:15.168Z,89
2022-12-15T00:22:22.238Z,89
2022-12-15T00:23:29.772Z,89
2022-12-15T00:24:35.959Z,89
2022-12-15T00:25:42.996Z,89
2022-12-15T00:26:50.115Z,88
2022-12-15T00:27:57.208Z,88
2022-12-15T00:29:04.630Z,88
2022-12-15T00:30:10.903Z,88
2022-12-15T00:31:18.186Z,88
2022-12-15T00:32:25.190Z,88
2022-12-15T00:35:49.011Z,88
2022-12-15T00:36:53.089Z,88
2022-12-15T00:38:00.117Z,88
2022-12-15T00:39:07.210Z,89
2022-12-15T00:40:14.378Z,89
2022-12-15T00:41:20.945Z,89
2022-12-15T00:42:28.043Z,89
2022-12-15T00:43:35.674Z,89
2022-12-15T00:44:42.331Z,89
2022-12-15T00:45:49.359Z,89
2022-12-15T00:46:56.105Z,89
2022-12-15T00:48:03.077Z,89
2022-12-15T00:49:10.169Z,89
2022-12-15T00:50:17.252Z,89
2022-12-15T00:51:24.449Z,89
2022-12-15T00:52:31.062Z,89
2022-12-15T00:53:38.046Z,89
2022-12-15T00:54:45.195Z,89
2022-12-15T00:55:52.254Z,89
2022-12-15T00:56:59.426Z,89
2022-12-15T00:59:13.101Z,90
2022-12-15T01:00:20.212Z,90
2022-12-15T01:01:27.390Z,89
2022-12-15T01:02:34.638Z,89
2022-12-15T01:03:41.235Z,89
2022-12-15T01:04:48.058Z,90
2022-12-15T01:05:55.192Z,90
2022-12-15T01:07:02.344Z,89
2022-12-15T01:08:09.388Z,90
2022-12-15T01:09:15.985Z,90
2022-12-15T01:10:23.083Z,90
2022-12-15T01:11:30.239Z,90
2022-12-15T01:12:37.292Z,90
2022-12-15T01:13:44.389Z,90
2022-12-15T01:14:51.045Z,89
2022-12-15T01:15:58.338Z,90
2022-12-15T01:17:05.235Z,90
2022-12-15T01:18:12.292Z,90
2022-12-15T01:19:19.381Z,90
2022-12-15T01:20:26.046Z,90
2022-12-15T01:21:33.152Z,90
2022-12-15T01:22:40.195Z,90
2022-12-15T01:23:47.281Z,90
2022-12-15T01:24:54.434Z,90
2022-12-15T01:26:00.968Z,90
2022-12-15T01:27:08.161Z,90
2022-12-15T01:28:15.227Z,90
2022-12-15T01:29:22.282Z,90
2022-12-15T01:30:29.388Z,90
2022-12-15T01:31:36.112Z,90
2022-12-15T01:32:45.990Z,90
2022-12-15T01:33:50.210Z,90
2022-12-15T01:34:57.825Z,90
2022-12-15T01:36:04.445Z,90
2022-12-15T01:37:11.100Z,90
2022-12-15T01:39:25.270Z,90
2022-12-15T01:40:32.310Z,91
2022-12-15T01:41:39.485Z,91
2022-12-15T01:42:46.020Z,91
2022-12-15T01:43:53.145Z,91
2022-12-15T01:45:00.218Z,91
2022-12-15T01:46:07.337Z,91
2022-12-15T01:47:14.557Z,91
2022-12-15T01:48:21.027Z,91
2022-12-15T01:49:28.151Z,91
2022-12-15T01:50:35.246Z,91
2022-12-15T01:51:42.408Z,92
2022-12-15T01:52:49.713Z,92
2022-12-15T01:53:56.042Z,92
2022-12-15T01:55:03.178Z,92
2022-12-15T01:56:10.260Z,92
2022-12-15T01:57:17.341Z,92
2022-12-15T01:58:23.962Z,92
2022-12-15T01:59:31.061Z,92
2022-12-15T02:00:38.183Z,92
2022-12-15T02:01:45.541Z,92
2022-12-15T02:02:52.644Z,92
2022-12-15T02:03:58.915Z,92
2022-12-15T02:05:06.063Z,92
2022-12-15T02:06:13.156Z,92
2022-12-15T02:07:20.289Z,92
2022-12-15T02:08:27.359Z,92
2022-12-15T02:09:33.972Z,91
2022-12-15T02:10:41.082Z,91
2022-12-15T02:11:48.144Z,91
2022-12-15T02:12:55.288Z,91
2022-12-15T02:14:02.397Z,91
2022-12-15T02:15:08.940Z,91
2022-12-15T02:16:16.153Z,92
2022-12-15T02:17:23.199Z,92
2022-12-15T02:18:30.297Z,92
2022-12-15T02:19:37.379Z,91
2022-12-15T02:20:43.980Z,92
2022-12-15T02:21:51.137Z,91
2022-12-15T02:22:58.172Z,91
2022-12-15T02:24:05.285Z,91
2022-12-15T02:25:12.414Z,91
2022-12-15T02:27:26.164Z,91
2022-12-15T02:28:33.281Z,91
2022-12-15T02:29:40.315Z,91
2022-12-15T02:30:47.356Z,91
2022-12-15T02:31:54.175Z,91
2022-12-15T02:33:01.067Z,91
2022-12-15T02:34:08.172Z,91
2022-12-15T02:35:15.313Z,91
2022-12-15T02:36:22.392Z,91
2022-12-15T02:37:28.956Z,91
2022-12-15T02:38:36.131Z,91
2022-12-15T02:39:43.281Z,91
2022-12-15T02:40:50.297Z,91
2022-12-15T02:47:32.475Z,91
2022-12-15T02:48:39.012Z,91
2022-12-15T02:54:14.004Z,91
2022-12-15T02:55:21.132Z,91
2022-12-15T02:56:28.292Z,92
2022-12-15T02:57:35.321Z,92
2022-12-15T02:58:42.472Z,92
2022-12-15T02:59:49.014Z,92
2022-12-15T03:00:56.238Z,92
2022-12-15T03:02:03.606Z,92
2022-12-15T03:03:11.001Z,92
2022-12-15T03:04:17.421Z,92
2022-12-15T03:05:24.113Z,92
2022-12-15T03:06:31.104Z,92
2022-12-15T03:07:38.213Z,92
2022-12-15T03:08:45.359Z,92
2022-12-15T03:09:52.475Z,92
2022-12-15T03:10:59.033Z,92
2022-12-15T03:12:06.192Z,92
2022-12-15T03:13:13.240Z,92
2022-12-15T03:14:20.360Z,92
2022-12-15T03:15:31.826Z,92
2022-12-15T03:16:34.183Z,92
2022-12-15T03:17:41.157Z,92
2022-12-15T03:18:48.240Z,92
2022-12-15T03:19:55.370Z,92
2022-12-15T03:21:02.485Z,92
2022-12-15T03:22:09.107Z,92
2022-12-15T03:23:16.168Z,92
2022-12-15T03:24:23.270Z,92
2022-12-15T03:25:30.371Z,92
2022-12-15T03:26:37.522Z,92
2022-12-15T03:27:44.078Z,92
2022-12-15T03:28:51.132Z,92
2022-12-15T03:29:58.252Z,92
2022-12-15T03:31:05.364Z,92
2022-12-15T03:32:12.600Z,92
2022-12-15T03:33:19.036Z,92
2022-12-15T03:34:26.210Z,92
2022-12-15T03:35:33.264Z,92
2022-12-15T03:36:40.381Z,92
2022-12-15T03:37:47.464Z,92
2022-12-15T03:38:54.091Z,92
2022-12-15T03:40:01.168Z,92
2022-12-15T03:41:08.269Z,92
2022-12-15T03:42:15.416Z,92
2022-12-15T03:43:21.970Z,92
2022-12-15T03:44:29.050Z,92
2022-12-15T03:46:43.414Z,92
2022-12-15T03:47:50.412Z,92
2022-12-15T03:48:56.955Z,92
2022-12-15T03:50:04.127Z,92
2022-12-15T03:51:11.182Z,92
2022-12-15T03:52:18.286Z,92
2022-12-15T03:53:25.514Z,92
2022-12-15T03:55:39.123Z,93
2022-12-15T03:56:46.247Z,93
2022-12-15T03:57:53.332Z,92
2022-12-15T03:59:00.424Z,92
2022-12-15T04:00:06.990Z,93
2022-12-15T04:01:14.163Z,93
2022-12-15T04:02:21.651Z,93
2022-12-15T04:03:29.004Z,93
2022-12-15T04:04:35.432Z,93
2022-12-15T04:05:42.037Z,93
2022-12-15T04:06:49.099Z,93
2022-12-15T04:07:56.202Z,93
2022-12-15T04:09:03.316Z,93
2022-12-15T04:10:10.424Z,93
2022-12-15T04:11:17.500Z,93
2022-12-15T04:12:24.169Z,93
2022-12-15T04:13:31.668Z,93
2022-12-15T04:14:38.320Z,93
2022-12-15T04:15:45.440Z,93
2022-12-15T04:16:52.188Z,93
2022-12-15T04:17:59.185Z,93
2022-12-15T04:19:06.219Z,93
2022-12-15T04:20:13.339Z,93
2022-12-15T04:21:20.459Z,93
2022-12-15T04:22:27.000Z,93
2022-12-15T04:23:34.436Z,93
2022-12-15T04:24:41.236Z,93
2022-12-15T04:25:49.231Z,93
2022-12-15T04:26:55.466Z,93
2022-12-15T04:28:02.086Z,93
2022-12-15T04:29:09.116Z,93
2022-12-15T04:30:16.258Z,93
2022-12-15T04:31:23.942Z,93
2022-12-15T04:32:30.507Z,93
2022-12-15T04:33:38.179Z,93
2022-12-15T04:34:44.169Z,93
2022-12-15T04:35:51.287Z,93
2022-12-15T04:36:58.389Z,93
2022-12-15T04:38:05.497Z,93
2022-12-15T04:39:12.063Z,93
2022-12-15T04:40:19.126Z,93
2022-12-15T04:41:26.279Z,93
2022-12-15T04:42:33.446Z,93
2022-12-15T04:43:40.478Z,93
2022-12-15T04:44:50.161Z,93
2022-12-15T04:45:54.241Z,93
2022-12-15T04:47:01.310Z,93
2022-12-15T04:48:08.374Z,93
2022-12-15T04:50:22.065Z,93
2022-12-15T04:51:29.161Z,93
2022-12-15T04:52:36.294Z,94
2022-12-15T04:53:43.390Z,94
2022-12-15T04:54:50.485Z,94
2022-12-15T04:55:57.566Z,94
2022-12-15T04:57:04.214Z,94
2022-12-15T04:58:11.293Z,94
2022-12-15T04:59:18.381Z,94
2022-12-15T05:00:25.514Z,94
2022-12-15T05:01:32.228Z,94
2022-12-15T05:02:39.331Z,94
2022-12-15T05:03:46.315Z,94
2022-12-15T05:04:53.421Z,94
2022-12-15T05:06:00.500Z,97
2022-12-15T05:07:07.111Z,94
2022-12-15T05:08:14.185Z,97
2022-12-15T05:09:21.375Z,94
2022-12-15T05:10:28.412Z,97
2022-12-15T05:11:35.569Z,94
2022-12-15T05:12:42.088Z,94
2022-12-15T05:13:49.192Z,97
2022-12-15T05:14:56.301Z,94
2022-12-15T05:16:03.470Z,97
2022-12-15T05:17:10.104Z,97
2022-12-15T05:18:17.090Z,99
2022-12-15T05:19:24.224Z,99
2022-12-15T05:20:31.310Z,99
2022-12-15T05:21:38.475Z,99
2022-12-15T05:23:52.106Z,99
2022-12-15T05:24:59.201Z,99
2022-12-15T05:26:06.320Z,99
2022-12-15T05:27:13.510Z,99
2022-12-15T05:28:19.986Z,99
2022-12-15T05:29:27.076Z,99
2022-12-15T05:30:34.265Z,97
2022-12-15T05:31:41.445Z,97
2022-12-15T05:32:49.817Z,97
2022-12-15T05:33:59.650Z,94
2022-12-15T05:35:02.140Z,94
2022-12-15T05:36:09.222Z,94
2022-12-15T05:37:16.409Z,97
2022-12-15T05:38:23.461Z,94
2022-12-15T05:39:30.576Z,94
2022-12-15T05:40:37.136Z,94
2022-12-15T05:41:44.316Z,94
2022-12-15T05:42:51.335Z,94
2022-12-15T05:43:58.433Z,94
2022-12-15T05:45:05.601Z,94
2022-12-15T05:46:12.205Z,94
2022-12-15T05:47:19.361Z,94
2022-12-15T05:48:26.345Z,94
2022-12-15T05:49:33.509Z,94
2022-12-15T05:50:40.567Z,94
2022-12-15T05:51:47.140Z,94
2022-12-15T05:54:01.491Z,94
2022-12-15T05:55:08.450Z,94
2022-12-15T05:56:15.065Z,97
2022-12-15T05:57:22.228Z,94
2022-12-15T05:58:29.228Z,94
2022-12-15T05:59:36.862Z,94
2022-12-15T06:00:43.489Z,94
2022-12-15T06:01:50.146Z,94
2022-12-15T06:02:57.291Z,94
2022-12-15T06:04:04.309Z,94
2022-12-15T06:05:11.381Z,94
2022-12-15T06:06:18.445Z,94
2022-12-15T06:07:25.574Z,94
2022-12-15T06:08:32.146Z,95
2022-12-15T06:09:39.252Z,94
2022-12-15T06:10:46.418Z,95
2022-12-15T06:11:54.116Z,94
2022-12-15T06:13:00.078Z,94
2022-12-15T06:14:07.163Z,94
2022-12-15T06:15:14.261Z,94
2022-12-15T06:16:21.452Z,94
2022-12-15T06:17:28.527Z,94
2022-12-15T06:18:35.145Z,95
2022-12-15T06:19:42.345Z,95
2022-12-15T06:20:49.711Z,95
2022-12-15T06:21:56.500Z,95
2022-12-15T06:23:03.519Z,97
2022-12-15T06:24:10.070Z,95
2022-12-15T06:25:17.188Z,95
2022-12-15T06:26:24.301Z,99
2022-12-15T06:27:31.458Z,95
2022-12-15T06:28:38.471Z,97
2022-12-15T06:29:45.659Z,97
2022-12-15T06:30:52.261Z,95
2022-12-15T06:31:59.361Z,95
2022-12-15T06:33:06.447Z,97
2022-12-15T06:34:13.587Z,99
2022-12-15T06:35:20.068Z,99
2022-12-15T06:36:27.187Z,99
2022-12-15T06:37:34.360Z,99
2022-12-15T06:38:41.443Z,99
2022-12-15T06:39:48.531Z,99
2022-12-15T06:40:55.112Z,99
2022-12-15T06:42:02.258Z,99
2022-12-15T06:43:09.321Z,99
2022-12-15T06:44:16.461Z,99
2022-12-15T06:45:23.500Z,99
2022-12-15T06:46:30.301Z,99
2022-12-15T06:47:37.279Z,99
2022-12-15T06:48:44.337Z,99
2022-12-15T06:49:51.528Z,99
2022-12-15T06:52:05.209Z,99
2022-12-15T06:53:12.265Z,99
2022-12-15T06:54:19.321Z,99
2022-12-15T06:55:26.469Z,99
2022-12-15T06:57:40.111Z,99
2022-12-15T06:58:47.240Z,99
2022-12-15T06:59:54.379Z,99
2022-12-15T07:01:01.490Z,99
2022-12-15T07:02:08.703Z,99
2022-12-15T07:03:15.525Z,99
2022-12-15T07:04:22.330Z,99
2022-12-15T07:05:29.390Z,99
2022-12-15T07:06:36.952Z,99
2022-12-15T07:07:43.755Z,99
2022-12-15T07:08:50.144Z,99
2022-12-15T07:09:57.246Z,99
2022-12-15T07:11:04.355Z,99
2022-12-15T07:12:11.483Z,99
2022-12-15T07:13:18.563Z,99
2022-12-15T07:14:25.180Z,99
2022-12-15T07:15:32.785Z,99
2022-12-15T07:16:39.460Z,99
2022-12-15T07:17:46.522Z,99
2022-12-15T07:18:53.607Z,99
2022-12-15T07:20:00.174Z,99
2022-12-15T07:21:07.319Z,99
2022-12-15T07:22:14.428Z,99
2022-12-15T07:23:39.683Z,99
2022-12-15T07:24:28.581Z,99
2022-12-15T07:25:35.195Z,99
2022-12-15T07:26:42.357Z,99
2022-12-15T07:27:49.906Z,99
2022-12-15T07:28:56.759Z,99
2022-12-15T07:30:03.614Z,99
2022-12-15T07:31:10.198Z,99
2022-12-15T07:32:17.327Z,99
2022-12-15T07:33:24.477Z,99
2022-12-15T07:34:31.508Z,99
2022-12-15T07:35:38.579Z,99
2022-12-15T07:36:51.570Z,99
2022-12-15T07:37:52.313Z,99
2022-12-15T07:38:59.365Z,99
2022-12-15T07:40:06.548Z,99
2022-12-15T07:41:13.622Z,99
2022-12-15T07:42:20.280Z,99
2022-12-15T07:43:27.303Z,99
2022-12-15T07:44:34.505Z,99
2022-12-15T07:45:44.480Z,99
2022-12-15T07:46:48.118Z,99
2022-12-15T07:47:55.202Z,99
2022-12-15T07:49:02.329Z,99
2022-12-15T07:50:09.406Z,99
2022-12-15T07:51:19.679Z,99
2022-12-15T07:52:23.184Z,99
2022-12-15T07:53:30.770Z,99
2022-12-15T07:54:37.316Z,99
2022-12-15T07:56:06.363Z,99
2022-12-15T07:56:51.550Z,99
2022-12-15T07:57:58.183Z,99
2022-12-15T07:59:05.159Z,99
2022-12-15T08:01:19.578Z,99
2022-12-15T08:02:26.838Z,99
2022-12-15T08:03:34.456Z,99
2022-12-15T08:04:40.232Z,99
2022-12-15T08:05:49.238Z,99
2022-12-15T08:06:54.500Z,99
2022-12-15T08:08:01.551Z,99
2022-12-15T08:09:08.149Z,99
2022-12-15T08:10:15.300Z,99
2022-12-15T08:11:22.379Z,99
2022-12-15T08:12:29.479Z,99
2022-12-15T08:14:43.156Z,99
2022-12-15T08:15:50.229Z,99
2022-12-15T08:16:57.523Z,99
2022-12-15T08:18:04.438Z,99
2022-12-15T08:20:18.432Z,99
2022-12-15T08:21:25.227Z,99
2022-12-15T08:22:33.153Z,99
2022-12-15T08:23:39.416Z,99
2022-12-15T08:24:46.617Z,99
2022-12-15T08:25:54.112Z,99
2022-12-15T08:27:00.353Z,99
2022-12-15T08:28:07.341Z,99
2022-12-15T08:29:50.089Z,99
2022-12-15T08:30:21.624Z,99
2022-12-15T08:31:28.294Z,99
2022-12-15T08:32:35.268Z,99
2022-12-15T08:33:42.409Z,99
2022-12-15T08:34:49.432Z,99
2022-12-15T08:35:57.257Z,99
2022-12-15T08:37:03.479Z,99
2022-12-15T08:38:10.541Z,99
2022-12-15T08:39:17.773Z,99
2022-12-15T08:40:24.445Z,99
2022-12-15T08:41:31.609Z,99
2022-12-15T08:42:38.223Z,99
2022-12-15T08:43:48.493Z,99
2022-12-15T08:44:52.403Z,99
2022-12-15T08:45:59.643Z,99
2022-12-15T08:47:06.727Z,99
2022-12-15T08:48:13.651Z,99
2022-12-15T08:49:22.383Z,99
2022-12-15T08:50:27.776Z,99
2022-12-15T08:51:34.516Z,99
2022-12-15T08:52:55.330Z,99
2022-12-15T08:53:48.688Z,99
2022-12-15T08:54:55.314Z,99
2022-12-15T08:56:03.525Z,99
2022-12-15T08:57:09.794Z,99
2022-12-15T08:58:16.725Z,99
2022-12-15T08:59:23.717Z,99
2022-12-15T09:00:30.256Z,99
2022-12-15T09:01:42.100Z,99
2022-12-15T09:02:45.303Z,99
2022-12-15T09:04:58.485Z,99
2022-12-15T09:06:05.762Z,99
2022-12-15T09:07:13.167Z,99
2022-12-15T09:08:21.144Z,99
2022-12-15T09:09:27.212Z,99
2022-12-15T09:10:34.103Z,99
2022-12-15T09:11:40.291Z,99
2022-12-15T09:12:48.131Z,99
2022-12-15T09:13:55.157Z,99
2022-12-15T09:15:02.174Z,99
2022-12-15T09:16:10.776Z,99
2022-12-15T09:17:17.134Z,99
2022-12-15T09:18:23.000Z,99
2022-12-15T09:19:30.152Z,99
2022-12-15T09:20:37.004Z,99
2022-12-15T09:21:43.495Z,99
2022-12-15T09:22:50.831Z,99
2022-12-15T09:23:57.381Z,99
2022-12-15T09:25:06.128Z,99
2022-12-15T09:26:12.202Z,99
2022-12-15T09:27:18.197Z,99
2022-12-15T09:28:25.311Z,99
2022-12-15T09:29:32.685Z,99
2022-12-15T09:30:39.563Z,99
2022-12-15T09:31:47.217Z,99
2022-12-15T09:32:54.055Z,99
2022-12-15T09:34:00.907Z,99
2022-12-15T09:35:07.994Z,99
2022-12-15T09:36:15.172Z,99
2022-12-15T09:37:26.045Z,99
2022-12-15T09:38:28.428Z,99
2022-12-15T09:39:37.948Z,99
2022-12-15T09:40:43.083Z,99
2022-12-15T09:41:50.205Z,99
2022-12-15T09:43:25.823Z,99
2022-12-15T09:44:03.660Z,99
2022-12-15T09:45:10.877Z,99
2022-12-15T09:46:17.552Z,99
2022-12-15T09:48:32.392Z,99
2022-12-15T09:49:38.532Z,99
2022-12-15T09:50:45.337Z,99
2022-12-15T09:51:53.410Z,99
2022-12-15T09:52:59.569Z,99
2022-12-15T09:54:06.971Z,99
2022-12-15T09:55:13.367Z,99
2022-12-15T09:56:20.516Z,99
2022-12-15T09:57:27.664Z,99
2022-12-15T09:58:34.676Z,99
2022-12-15T09:59:42.129Z,99
2022-12-15T10:00:50.747Z,99
2022-12-15T10:01:55.736Z,99
2022-12-15T10:03:02.691Z,99
2022-12-15T10:04:10.853Z,99
2022-12-15T10:05:16.164Z,99
2022-12-15T10:06:29.660Z,99
2022-12-15T10:08:38.532Z,99
2022-12-15T10:09:44.939Z,99
2022-12-15T10:10:51.811Z,99
2022-12-15T10:11:58.725Z,99
2022-12-15T10:13:06.965Z,99
2022-12-15T10:14:12.867Z,99
2022-12-15T10:15:19.755Z,99
2022-12-15T10:16:26.294Z,99
2022-12-15T10:17:33.830Z,99
2022-12-15T10:18:40.825Z,99
2022-12-15T10:19:50.122Z,99
2022-12-15T10:20:54.722Z,99
2022-12-15T10:22:02.415Z,99
2022-12-15T10:23:08.307Z,99
2022-12-15T10:24:31.637Z,99
2022-12-15T10:25:29.737Z,99
2022-12-15T10:26:30.731Z,99
2022-12-15T10:27:36.499Z,99
2022-12-15T10:28:43.348Z,99
2022-12-15T10:29:50.968Z,99
2022-12-15T10:31:01.888Z,99
2022-12-15T10:32:04.663Z,99
2022-12-15T10:33:11.697Z,99
2022-12-15T10:34:19.055Z,99
2022-12-15T10:35:25.407Z,99
2022-12-15T10:36:32.964Z,99
2022-12-15T10:37:40.698Z,99
2022-12-15T10:38:46.205Z,99
2022-12-15T10:39:54.076Z,99
2022-12-15T10:41:02.812Z,99
2022-12-15T10:42:07.494Z,99
2022-12-15T10:43:15.119Z,99
2022-12-15T10:44:25.870Z,99
2022-12-15T10:45:28.483Z,99
2022-12-15T10:46:35.452Z,99
2022-12-15T10:47:43.388Z,99
2022-12-15T10:48:49.620Z,99
2022-12-15T10:49:56.705Z,99
2022-12-15T10:51:03.915Z,99
2022-12-15T10:52:10.687Z,99
2022-12-15T10:53:18.001Z,99
2022-12-15T10:54:25.400Z,99
2022-12-15T10:55:31.837Z,99
2022-12-15T10:56:38.302Z,99
2022-12-15T10:57:45.699Z,99
2022-12-15T10:58:53.057Z,99
2022-12-15T10:59:59.680Z,99
2022-12-15T11:01:06.762Z,99
2022-12-15T11:02:19.538Z,99
2022-12-15T11:03:20.606Z,99
2022-12-15T11:04:28.244Z,99
2022-12-15T11:05:34.665Z,99
2022-12-15T11:06:41.688Z,99
2022-12-15T11:07:49.157Z,99
2022-12-15T11:08:56.958Z,99
2022-12-15T11:10:02.776Z,99
2022-12-15T11:12:16.585Z,99
2022-12-15T11:13:23.366Z,99
2022-12-15T11:14:30.472Z,99
2022-12-15T11:16:45.329Z,99
2022-12-15T11:17:51.783Z,99
2022-12-15T11:18:58.837Z,99
2022-12-15T11:20:06.220Z,99
2022-12-15T11:21:14.159Z,99
2022-12-15T11:22:20.703Z,99
2022-12-15T11:23:26.295Z,99
2022-12-15T11:24:33.982Z,99
2022-12-15T11:25:41.147Z,99
2022-12-15T11:26:49.063Z,99
2022-12-15T11:27:55.790Z,99
2022-12-15T11:29:01.287Z,99
2022-12-15T11:30:08.866Z,99
2022-12-15T11:31:17.137Z,99
2022-12-15T11:32:23.470Z,99
2022-12-15T11:33:30.139Z,99
2022-12-15T11:34:37.167Z,99
2022-12-15T11:35:43.403Z,99
2022-12-15T11:36:50.499Z,99
2022-12-15T11:37:59.738Z,99
2022-12-15T11:39:05.419Z,99
2022-12-15T11:40:12.834Z,99
2022-12-15T11:41:20.011Z,99
2022-12-15T11:42:25.773Z,99
2022-12-15T11:43:33.400Z,99
2022-12-15T11:44:40.293Z,99
2022-12-15T11:45:49.410Z,99
2022-12-15T11:46:54.006Z,99
2022-12-15T11:48:00.800Z,99
2022-12-15T11:49:07.595Z,99
2022-12-15T11:50:15.014Z,99
2022-12-15T11:51:21.951Z,99
2022-12-15T11:52:29.446Z,99
2022-12-15T11:53:35.864Z,99
2022-12-15T11:54:42.762Z,99
2022-12-15T11:55:49.877Z,99
2022-12-15T11:56:56.898Z,99
2022-12-15T11:58:03.737Z,99
2022-12-15T11:59:10.521Z,99
2022-12-15T12:00:17.622Z,99
2022-12-15T12:01:24.829Z,99
2022-12-15T12:02:31.574Z,99
2022-12-15T12:03:38.748Z,99
2022-12-15T12:04:46.389Z,99
2022-12-15T12:05:52.609Z,99
2022-12-15T12:06:59.184Z,99
2022-12-15T12:08:09.489Z,99
2022-12-15T12:09:15.104Z,99
2022-12-15T12:10:20.976Z,99
2022-12-15T12:11:27.659Z,99
2022-12-15T12:12:37.630Z,99
2022-12-15T12:13:42.033Z,99
2022-12-15T12:15:55.810Z,99
2022-12-15T12:17:03.303Z,99
2022-12-15T12:18:10.877Z,99
2022-12-15T12:19:17.132Z,99
2022-12-15T12:20:23.548Z,99
2022-12-15T12:21:30.813Z,99
2022-12-15T12:22:38.798Z,99
2022-12-15T12:23:45.371Z,99
2022-12-15T12:24:52.039Z,99
2022-12-15T12:27:06.739Z,99
2022-12-15T12:28:12.760Z,99
2022-12-15T12:29:19.390Z,99
2022-12-15T12:30:27.498Z,99
2022-12-15T12:31:33.990Z,99
2022-12-15T12:32:40.802Z,99
2022-12-15T12:33:48.588Z,99
2022-12-15T12:34:54.231Z,99
2022-12-15T12:36:01.372Z,99
2022-12-15T12:37:09.344Z,99
2022-12-15T12:38:17.007Z,99
2022-12-15T12:39:22.704Z,99
2022-12-15T12:40:29.850Z,99
2022-12-15T12:41:36.373Z,99
2022-12-15T12:42:44.380Z,99
2022-12-15T12:44:59.122Z,99
2022-12-15T12:46:05.317Z,99
2022-12-15T12:47:11.701Z,99
2022-12-15T12:48:19.094Z,99
2022-12-15T12:50:33.301Z,99
2022-12-15T12:51:39.331Z,99
2022-12-15T12:52:47.392Z,99
2022-12-15T12:53:54.150Z,99
2022-12-15T12:55:02.265Z,99
2022-12-15T12:56:08.377Z,99
2022-12-15T12:57:14.606Z,99
2022-12-15T12:58:21.410Z,99
2022-12-15T12:59:30.021Z,99
2022-12-15T13:00:36.412Z,99
2022-12-15T13:01:43.616Z,99
2022-12-15T13:02:50.532Z,99
2022-12-15T13:03:56.399Z,99
2022-12-15T13:05:04.098Z,99
2022-12-15T13:06:11.997Z,99
2022-12-15T13:07:18.615Z,99
2022-12-15T13:08:24.311Z,99
2022-12-15T13:09:31.409Z,99
2022-12-15T13:10:38.484Z,99
2022-12-15T13:11:46.934Z,99
2022-12-15T13:12:53.756Z,99
2022-12-15T13:13:59.916Z,99
2022-12-15T13:15:06.406Z,99
2022-12-15T13:16:14.242Z,99
2022-12-15T13:17:27.028Z,99
2022-12-15T13:18:27.705Z,99
2022-12-15T13:19:35.291Z,99
2022-12-15T13:20:41.982Z,99
2022-12-15T13:21:48.974Z,99
2022-12-15T13:22:56.495Z,99
2022-12-15T13:24:02.740Z,99
2022-12-15T13:25:09.296Z,99
2022-12-15T13:26:17.115Z,99
2022-12-15T13:27:24.344Z,99
2022-12-15T13:28:30.661Z,99
2022-12-15T13:29:38.190Z,99
2022-12-15T13:30:44.444Z,99
2022-12-15T13:31:52.174Z,99
2022-12-15T13:32:59.242Z,99
2022-12-15T13:34:06.041Z,99
2022-12-15T13:35:14.016Z,99
2022-12-15T13:36:19.302Z,99
2022-12-15T13:37:27.280Z,99
2022-12-15T13:38:34.049Z,99
2022-12-15T13:39:41.199Z,99
2022-12-15T13:40:47.930Z,99
2022-12-15T13:42:32.100Z,99
2022-12-15T13:43:03.676Z,99
2022-12-15T13:44:09.213Z,99
2022-12-15T13:45:16.242Z,99
2022-12-15T13:46:23.569Z,99
2022-12-15T13:47:30.252Z,99
2022-12-15T13:48:36.607Z,99
2022-12-15T13:49:49.403Z,99
2022-12-15T13:50:51.657Z,99
2022-12-15T13:51:57.803Z,99
2022-12-15T13:53:19.949Z,99
2022-12-15T13:54:11.736Z,99
2022-12-15T13:55:24.115Z,99
2022-12-15T13:56:25.868Z,99
2022-12-15T13:57:33.185Z,99
2022-12-15T13:58:39.541Z,99
2022-12-15T13:59:46.515Z,99
2022-12-15T14:00:54.997Z,99
2022-12-15T14:02:00.740Z,99
2022-12-15T14:03:08.118Z,99
2022-12-15T14:04:14.403Z,99
2022-12-15T14:05:22.054Z,99
2022-12-15T14:06:29.246Z,99
2022-12-15T14:07:35.694Z,99
2022-12-15T14:08:43.015Z,99
2022-12-15T14:09:49.790Z,99
2022-12-15T14:10:57.030Z,99
2022-12-15T14:12:04.037Z,99
2022-12-15T14:13:16.248Z,99
2022-12-15T14:14:17.567Z,99
2022-12-15T14:15:24.407Z,99
2022-12-15T14:16:31.845Z,99
2022-12-15T14:17:38.714Z,99
2022-12-15T14:18:45.826Z,99
2022-12-15T14:19:53.404Z,99
2022-12-15T14:20:59.900Z,99
2022-12-15T14:22:07.928Z,99
2022-12-15T14:23:14.047Z,99
2022-12-15T14:24:38.206Z,99
2022-12-15T14:25:28.254Z,99
2022-12-15T14:26:34.394Z,99
2022-12-15T14:27:41.592Z,99
2022-12-15T14:28:48.585Z,99
2022-12-15T14:30:00.675Z,99
2022-12-15T14:31:03.137Z,99
2022-12-15T14:32:09.422Z,99
2022-12-15T14:33:16.593Z,99
2022-12-15T14:34:24.135Z,99
2022-12-15T14:35:30.875Z,99
2022-12-15T14:36:38.005Z,99
2022-12-15T14:37:44.693Z,99
2022-12-15T14:38:52.093Z,99
2022-12-15T14:40:02.163Z,99
2022-12-15T14:42:13.446Z,99
2022-12-15T14:43:19.850Z,99
2022-12-15T14:44:37.284Z,99
2022-12-15T14:45:34.361Z,99
2022-12-15T14:46:40.737Z,99
2022-12-15T14:48:05.770Z,99
2022-12-15T14:50:01.564Z,99
2022-12-15T14:51:08.623Z,99
2022-12-15T14:52:16.437Z,99
2022-12-15T14:53:23.020Z,99
2022-12-15T14:54:30.150Z,99
2022-12-15T14:55:36.537Z,99
2022-12-15T14:56:43.662Z,99
2022-12-15T14:57:51.058Z,99
2022-12-15T14:58:57.676Z,99
2022-12-15T15:00:04.523Z,99
2022-12-15T15:01:12.162Z,99
2022-12-15T15:02:19.797Z,99
2022-12-15T15:03:07.111Z,99
2022-12-15T15:03:16.014Z,99
2022-12-15T15:03:27.374Z,99
2022-12-15T15:04:33.078Z,99
2022-12-15T15:05:39.489Z,99
2022-12-15T15:06:52.047Z,99
2022-12-15T15:07:53.675Z,99
2022-12-15T15:09:00.753Z,99
2022-12-15T15:10:07.330Z,99
2022-12-15T15:11:15.138Z,99
2022-12-15T15:12:22.364Z,99
2022-12-15T15:13:28.654Z,99
2022-12-15T15:14:36.483Z,99
2022-12-15T15:15:42.387Z,99
2022-12-15T15:16:53.175Z,99
2022-12-15T15:17:57.491Z,99
2022-12-15T15:19:03.704Z,99
2022-12-15T15:20:12.256Z,99
2022-12-15T15:21:17.359Z,99
2022-12-15T15:22:24.920Z,99
2022-12-15T15:23:32.210Z,99
2022-12-15T15:24:38.664Z,99
2022-12-15T15:25:45.837Z,99
2022-12-15T15:26:52.449Z,99
2022-12-15T15:28:00.638Z,99
2022-12-15T15:29:07.290Z,99
2022-12-15T15:30:14.318Z,99
2022-12-15T15:31:22.446Z,99
2022-12-15T15:32:27.524Z,99
2022-12-15T15:33:34.503Z,99
2022-12-15T15:34:41.600Z,99
2022-12-15T15:35:50.057Z,99
2022-12-15T15:36:56.931Z,99
2022-12-15T15:38:02.521Z,99
2022-12-15T15:39:09.597Z,99
2022-12-15T15:40:17.292Z,99
2022-12-15T15:41:23.722Z,99
2022-12-15T15:42:32.878Z,99
2022-12-15T15:43:37.826Z,99
2022-12-15T15:45:51.659Z,99
2022-12-15T15:46:58.707Z,99
2022-12-15T15:48:06.382Z,99
2022-12-15T15:49:12.416Z,99
2022-12-15T15:50:19.986Z,99
2022-12-15T15:51:28.165Z,99
2022-12-15T15:52:35.711Z,99
2022-12-15T15:53:40.841Z,99
2022-12-15T15:54:47.993Z,99
2022-12-15T15:55:54.517Z,99
2022-12-15T15:57:01.599Z,99
2022-12-15T15:58:09.495Z,99
2022-12-15T15:59:16.535Z,99
2022-12-15T16:00:22.982Z,99
2022-12-15T16:01:29.578Z,99
2022-12-15T16:02:37.108Z,99
2022-12-15T16:03:44.453Z,99
2022-12-15T16:04:50.986Z,99
2022-12-15T16:05:58.872Z,99
2022-12-15T16:07:06.091Z,99
2022-12-15T16:08:12.424Z,99
2022-12-15T16:09:20.130Z,99
2022-12-15T16:10:25.344Z,99
2022-12-15T16:11:33.657Z,99
2022-12-15T16:12:40.313Z,99
2022-12-15T16:13:46.618Z,99
2022-12-15T16:14:53.763Z,99
2022-12-15T16:16:02.191Z,99
2022-12-15T16:18:18.749Z,99
2022-12-15T16:19:22.349Z,99
2022-12-15T16:20:29.340Z,99
2022-12-15T16:21:35.581Z,99
2022-12-15T16:22:43.444Z,99
2022-12-15T16:23:50.239Z,99
2022-12-15T16:24:57.356Z,99
2022-12-15T16:26:06.597Z,99
2022-12-15T16:27:11.006Z,99
2022-12-15T16:28:18.153Z,99
2022-12-15T16:29:24.593Z,99
2022-12-15T16:30:32.267Z,99
2022-12-15T16:31:42.032Z,99
2022-12-15T16:32:45.885Z,99
2022-12-15T16:33:53.064Z,99
2022-12-15T16:34:59.954Z,99